Time;durP1;ratioP1;P1;durP2;ratioP2;P2;SDS_P1;SDS_P2;PMS_P1;PMS_P2;Temp;Humidity;BMP_temperature;BMP_pressure;BME280_temperature;BME280_humidity;BME280_pressure;Samples;Min_cycle;Max_cycle;Signal;HPM_P1;HPM_P2
2022/03/24 00:08:27;;;;;;;;;;;;;;;9.04;29.06;100531.94;5172044;27;34057;-96
2022/03/24 00:10:58;;;;;;;;;;;;;;;9.08;29.13;100531.09;5184541;27;33245;-95
2022/03/24 00:13:27;;;;;;;;;;;;;;;9.06;29.32;100530.22;5182659;27;33632;-96
2022/03/24 00:16:56;;;;;;;;;;;;;;;9.04;29.37;100524.19;5167863;27;32882;-96
2022/03/24 00:19:49;;;;;;;;;;;;;;;8.91;29.63;100512.88;5185355;27;33975;-96
2022/03/24 00:22:21;;;;;;;;;;;;;;;8.70;29.98;100516.19;5184145;27;34715;-96
2022/03/24 00:25:39;;;;;;;;;;;;;;;8.71;29.75;100499.78;5179193;27;32596;-96
2022/03/24 00:29:09;;;;;;;;;;;;;;;8.90;29.72;100514.59;5209850;27;34054;-96
2022/03/24 00:31:57;;;;;;;;;;;;;;;8.51;30.24;100497.06;5213722;27;32899;-96
2022/03/24 00:35:06;;;;;;;;;;;;;;;8.41;30.31;100496.12;5212148;27;33798;-96
2022/03/24 00:37:36;;;;;;;;;;;;;;;8.59;30.27;100490.22;5212768;27;32757;-96
2022/03/24 00:41:28;;;;;;;;;;;;;;;8.63;30.27;100486.81;5212488;27;33048;-96
2022/03/24 00:45:18;;;;;;;;;;;;;;;8.76;29.65;100482.59;5212299;27;32475;-96
2022/03/24 00:48:05;;;;;;;;;;;;;;;8.67;29.62;100482.50;5212227;27;33392;-96
2022/03/24 00:51:15;;;;;;;;;;;;;;;8.24;30.39;100480.44;5212258;27;31642;-96
2022/03/24 00:54:04;;;;;;;;;;;;;;;8.31;30.32;100477.03;5212078;27;32988;-96
2022/03/24 00:56:56;;;;;;;;;;;;;;;8.44;30.09;100470.28;5213357;27;33476;-96
2022/03/24 01:00:05;;;;;;;;;;;;;;;7.97;30.71;100474.97;5213537;27;33948;-96
2022/03/24 01:03:16;;;;;;;;;;;;;;;8.39;30.14;100464.19;5211679;27;31456;-96
2022/03/24 01:06:26;;;;;;;;;;;;;;;8.50;29.99;100470.31;5212320;27;34027;-96
2022/03/24 01:09:14;;;;;;;;;;;;;;;8.47;30.25;100461.69;5208567;27;34415;-96
2022/03/24 01:12:05;;;;;;;;;;;;;;;8.30;30.66;100453.75;5218282;27;33922;-96
2022/03/24 01:15:34;;;;;;;;;;;;;;;8.46;30.42;100457.37;5211404;27;32563;-96
2022/03/24 01:18:43;;;;;;;;;;;;;;;8.71;29.90;100455.81;5211471;27;34061;-96
2022/03/24 01:22:12;;;;;;;;;;;;;;;8.64;29.93;100448.88;5228691;27;33692;-96
2022/03/24 01:24:45;;;;;;;;;;;;;;;8.81;29.68;100443.81;5210915;27;34141;-95
2022/03/24 01:28:13;;;;;;;;;;;;;;;8.66;29.99;100449.75;5211175;27;32202;-95
2022/03/24 01:31:42;;;;;;;;;;;;;;;8.75;29.74;100444.66;5227979;27;33303;-95
2022/03/24 01:34:31;;;;;;;;;;;;;;;8.73;29.80;100442.03;5210878;27;33303;-95
2022/03/24 01:38:00;;;;;;;;;;;;;;;8.31;30.51;100438.28;5229399;27;34069;-95
2022/03/24 01:41:09;;;;;;;;;;;;;;;8.60;30.02;100441.94;5235222;27;33684;-95
2022/03/24 01:44:41;;;;;;;;;;;;;;;8.53;30.55;100428.13;5215755;27;33833;-95
2022/03/24 01:48:32;;;;;;;;;;;;;;;8.42;30.56;100438.38;5206162;27;33196;-94
2022/03/24 01:51:40;;;;;;;;;;;;;;;8.76;30.24;100436.87;5210194;27;33133;-96
2022/03/24 01:55:29;;;;;;;;;;;;;;;8.33;30.83;100422.75;5210464;27;32294;-95
2022/03/24 01:58:19;;;;;;;;;;;;;;;8.60;30.62;100429.00;5210234;27;33184;-95
2022/03/24 02:02:07;;;;;;;;;;;;;;;8.58;30.86;100422.94;5210108;27;34301;-95
2022/03/24 02:04:59;;;;;;;;;;;;;;;8.38;31.00;100418.47;5228966;27;35090;-94
2022/03/24 02:08:47;;;;;;;;;;;;;;;8.73;29.92;100412.72;5233624;27;32657;-95
2022/03/24 02:11:37;;;;;;;;;;;;;;;8.24;31.00;100409.75;5215586;27;32868;-96
2022/03/24 02:15:08;;;;;;;;;;;;;;;8.10;31.42;100413.09;5215669;27;33068;-96
2022/03/24 02:18:25;;;;;;;;;;;;;;;8.28;30.48;100407.19;5216343;27;34125;-96
2022/03/24 02:20:56;;;;;;;;;;;;;;;8.07;30.65;100407.91;5216013;27;32624;-96
2022/03/24 02:23:49;;;;;;;;;;;;;;;8.52;29.89;100406.53;5233005;27;34132;-95
2022/03/24 02:26:59;;;;;;;;;;;;;;;8.63;29.49;100403.19;5209126;27;33240;-96
2022/03/24 02:29:29;;;;;;;;;;;;;;;8.71;29.76;100409.25;5228328;27;34100;-95
2022/03/24 02:32:58;;;;;;;;;;;;;;;8.57;29.71;100401.41;5216012;27;33463;-95
2022/03/24 02:36:07;;;;;;;;;;;;;;;8.49;29.93;100403.09;5216336;27;32879;-95
2022/03/24 02:39:18;;;;;;;;;;;;;;;8.44;30.00;100408.22;5211441;27;32456;-96
2022/03/24 02:42:08;;;;;;;;;;;;;;;8.39;30.56;100407.28;5214837;27;32862;-94
2022/03/24 02:45:17;;;;;;;;;;;;;;;7.86;31.45;100398.25;5230685;27;33339;-95
2022/03/24 02:47:48;;;;;;;;;;;;;;;8.11;31.11;100404.47;5229015;27;32724;-95
2022/03/24 02:50:59;;;;;;;;;;;;;;;7.88;31.42;100406.87;5210942;27;32499;-96
2022/03/24 02:54:27;;;;;;;;;;;;;;;8.13;30.97;100407.09;5229797;27;33871;-96
2022/03/24 02:57:19;;;;;;;;;;;;;;;8.25;30.86;100403.75;5208753;27;33108;-95
2022/03/24 03:00:27;;;;;;;;;;;;;;;8.22;31.00;100409.75;5209795;27;33103;-95
2022/03/24 03:03:16;;;;;;;;;;;;;;;8.05;31.17;100404.44;5211386;27;33224;-95
2022/03/24 03:06:25;;;;;;;;;;;;;;;8.22;31.04;100401.12;5210711;27;33111;-96
2022/03/24 03:09:56;;;;;;;;;;;;;;;8.15;30.96;100409.69;5210660;27;32440;-96
2022/03/24 03:12:27;;;;;;;;;;;;;;;8.03;31.19;100408.72;5210577;27;33396;-94
2022/03/24 03:15:56;;;;;;;;;;;;;;;7.89;31.58;100397.41;5216011;27;32682;-96
2022/03/24 03:19:24;;;;;;;;;;;;;;;8.12;31.17;100401.06;5235902;27;34251;-96
2022/03/24 03:22:54;;;;;;;;;;;;;;;8.18;31.20;100392.47;5226148;27;32676;-95
2022/03/24 03:26:04;;;;;;;;;;;;;;;8.30;30.72;100382.22;5209790;27;33746;-96
2022/03/24 03:29:13;;;;;;;;;;;;;;;8.23;30.91;100388.22;5210825;27;34470;-96
2022/03/24 03:32:02;;;;;;;;;;;;;;;8.60;30.32;100380.75;5228437;27;34270;-95
2022/03/24 03:35:30;;;;;;;;;;;;;;;8.46;30.44;100393.59;5228542;27;32698;-94
2022/03/24 03:38:19;;;;;;;;;;;;;;;8.39;30.37;100384.03;5230220;27;33113;-95
2022/03/24 03:41:52;;;;;;;;;;;;;;;8.37;30.54;100379.69;5208995;27;32960;-96
2022/03/24 03:45:01;;;;;;;;;;;;;;;8.60;30.42;100377.28;5228160;27;34013;-95
2022/03/24 03:48:30;;;;;;;;;;;;;;;8.71;29.75;100376.47;5229858;27;33876;-94
2022/03/24 03:51:39;;;;;;;;;;;;;;;8.67;29.78;100376.47;5210554;27;34752;-95
2022/03/24 03:55:10;;;;;;;;;;;;;;;8.89;29.63;100380.91;5211173;27;33258;-95
2022/03/24 03:58:58;;;;;;;;;;;;;;;8.72;29.92;100379.94;5210986;27;33461;-94
2022/03/24 04:02:27;;;;;;;;;;;;;;;8.66;29.86;100377.31;5233571;27;32373;-94
2022/03/24 04:05:57;;;;;;;;;;;;;;;8.59;29.77;100375.56;5210037;27;32403;-95
2022/03/24 04:09:25;;;;;;;;;;;;;;;8.86;29.43;100369.66;5210374;27;33380;-94
2022/03/24 04:12:14;;;;;;;;;;;;;;;9.12;29.17;100367.19;5210395;27;34197;-95
2022/03/24 04:15:44;;;;;;;;;;;;;;;8.92;29.41;100367.97;5227224;27;32831;-95
2022/03/24 04:18:16;;;;;;;;;;;;;;;8.88;29.59;100373.13;5229847;27;34207;-96
2022/03/24 04:21:23;;;;;;;;;;;;;;;8.99;29.26;100371.47;5210592;27;33402;-95
2022/03/24 04:24:52;;;;;;;;;;;;;;;8.88;29.84;100378.31;5210872;27;33168;-95
2022/03/24 04:28:03;;;;;;;;;;;;;;;8.53;30.48;100377.25;5210483;27;32466;-96
2022/03/24 04:31:52;;;;;;;;;;;;;;;8.94;29.46;100376.63;5228550;27;33047;-96
2022/03/24 04:35:01;;;;;;;;;;;;;;;8.62;30.37;100366.09;5210600;27;33280;-96
2022/03/24 04:38:30;;;;;;;;;;;;;;;8.74;29.94;100362.69;5210209;27;32861;-95
2022/03/24 04:41:38;;;;;;;;;;;;;;;7.96;31.44;100363.03;5228303;27;32520;-95
2022/03/24 04:44:28;;;;;;;;;;;;;;;7.95;31.64;100360.41;5228744;27;33384;-95
2022/03/24 04:47:58;;;;;;;;;;;;;;;8.32;30.57;100364.16;5233647;27;32919;-95
2022/03/24 04:51:27;;;;;;;;;;;;;;;8.22;30.74;100357.19;5233983;27;33263;-95
2022/03/24 04:54:17;;;;;;;;;;;;;;;8.24;30.65;100369.28;5214799;27;33130;-94
2022/03/24 04:58:06;;;;;;;;;;;;;;;7.94;31.30;100358.69;5210349;27;33005;-96
2022/03/24 05:00:54;;;;;;;;;;;;;;;8.11;31.57;100365.72;5229529;27;34690;-95
2022/03/24 05:04:44;;;;;;;;;;;;;;;8.67;30.57;100366.13;5229483;27;33668;-94
2022/03/24 05:07:37;;;;;;;;;;;;;;;8.52;30.55;100359.13;5210384;27;32142;-94
2022/03/24 05:10:46;;;;;;;;;;;;;;;8.65;30.09;100353.19;5229670;27;35125;-95
2022/03/24 05:14:31;;;;;;;;;;;;;;;9.06;29.56;100351.63;5210403;27;33210;-95
2022/03/24 05:18:00;;;;;;;;;;;;;;;9.22;29.48;100361.16;5210012;27;33157;-95
2022/03/24 05:21:31;;;;;;;;;;;;;;;9.62;28.65;100369.06;5210310;27;31745;-95
2022/03/24 05:24:42;;;;;;;;;;;;;;;9.89;27.87;100367.34;5215080;27;32933;-95
2022/03/24 05:27:51;;;;;;;;;;;;;;;9.93;27.89;100364.75;5233403;27;32550;-96
2022/03/24 05:30:20;;;;;;;;;;;;;;;10.03;27.80;100368.22;5229794;27;34686;-95
2022/03/24 05:33:15;;;;;;;;;;;;;;;9.91;28.05;100368.22;5210589;27;32282;-94
2022/03/24 05:37:05;;;;;;;;;;;;;;;10.08;28.05;100363.91;5210998;27;33231;-96
2022/03/24 05:40:14;;;;;;;;;;;;;;;10.07;28.22;100366.47;5215790;27;33337;-96
2022/03/24 05:43:04;;;;;;;;;;;;;;;9.92;28.94;100367.34;5214744;27;34915;-95
2022/03/24 05:45:52;;;;;;;;;;;;;;;10.06;28.30;100368.22;5228571;27;32280;-96
2022/03/24 05:49:22;;;;;;;;;;;;;;;9.96;28.26;100366.50;5236127;27;34689;-95
2022/03/24 05:52:35;;;;;;;;;;;;;;;9.92;28.71;100367.34;5218746;27;34486;-96
2022/03/24 05:55:36;;;;;;;;;;;;;;;9.82;28.96;100367.34;5236619;27;34028;-96
2022/03/24 05:58:11;;;;;;;;;;;;;;;10.06;28.12;100369.94;5213416;27;32632;-96
2022/03/24 06:01:27;;;;;;;;;;;;;;;10.41;27.72;100367.34;5212794;27;34097;-96
2022/03/24 06:04:48;;;;;;;;;;;;;;;10.33;28.13;100371.69;5213612;27;35341;-96
2022/03/24 06:08:00;;;;;;;;;;;;;;;10.59;27.51;100361.25;5216530;27;34407;-96
2022/03/24 06:10:58;;;;;;;;;;;;;;;10.58;27.73;100367.31;5216075;27;32096;-96
2022/03/24 06:14:26;;;;;;;;;;;;;;;10.84;27.61;100368.09;5212990;27;34369;-96
2022/03/24 06:17:36;;;;;;;;;;;;;;;11.14;27.08;100365.38;5234971;27;35739;-96
2022/03/24 06:20:49;;;;;;;;;;;;;;;10.98;27.03;100370.66;5230487;27;33096;-96
2022/03/24 06:24:38;;;;;;;;;;;;;;;11.23;26.79;100361.00;5210936;27;31508;-96
2022/03/24 06:27:32;;;;;;;;;;;;;;;11.48;26.26;100359.13;5215453;27;34276;-96
2022/03/24 06:31:01;;;;;;;;;;;;;;;11.51;26.24;100360.84;5232641;27;34222;-96
2022/03/24 06:33:34;;;;;;;;;;;;;;;11.92;25.45;100365.78;5214201;27;34110;-96
2022/03/24 06:36:03;;;;;;;;;;;;;;;11.75;25.89;100360.69;5227660;27;32724;-96
2022/03/24 06:38:32;;;;;;;;;;;;;;;11.99;25.81;100358.81;5233581;27;34219;-94
2022/03/24 06:41:02;;;;;;;;;;;;;;;12.03;25.60;100355.28;5211431;27;32823;-94
2022/03/24 06:43:32;;;;;;;;;;;;;;;12.26;25.70;100362.91;5229307;27;34932;-95
2022/03/24 06:46:00;;;;;;;;;;;;;;;12.36;25.47;100356.72;5182540;27;779514;-95
2022/03/24 06:48:30;;;;;;;;;;;;;;;12.41;25.64;100355.81;5207676;27;33535;-95
2022/03/24 06:50:58;;;;;;;;;;;;;;;12.41;26.15;100358.44;5232317;27;34592;-95
2022/03/24 06:53:27;;;;;;;;;;;;;;;12.61;26.22;100356.47;5226189;27;32533;-94
2022/03/24 06:55:55;;;;;;;;;;;;;;;12.97;25.28;100354.31;5227717;27;33446;-96
2022/03/24 06:58:25;;;;;;;;;;;;;;;13.01;25.89;100356.88;5227624;27;33924;-95
2022/03/24 07:00:55;;;;;;;;;;;;;;;12.91;25.96;100355.25;5208625;27;33251;-96
2022/03/24 07:03:23;;;;;;;;;;;;;;;13.30;25.26;100352.19;5233172;27;34841;-95
2022/03/24 07:06:02;;;;;;;;;;;;;;;13.43;24.91;100348.53;5232874;27;32997;-94
2022/03/24 07:08:31;;;;;;;;;;;;;;;13.37;23.28;100351.22;5228491;27;34176;-96
2022/03/24 07:10:59;;;;;;;;;;;;;;;13.66;22.95;100345.59;5208527;27;34116;-94
2022/03/24 07:13:28;;;;;;;;;;;;;;;13.55;23.75;100350.94;5228281;27;33241;-94
2022/03/24 07:15:58;;;;;;;;;;;;;;;13.85;21.37;100348.78;5227843;27;33210;-94
2022/03/24 07:18:27;;;;;;;;;;;;;;;13.88;21.71;100349.56;5234317;27;34207;-94
2022/03/24 07:20:56;;;;;;;;;;;;;;;13.81;21.17;100345.34;5229978;27;34235;-94
2022/03/24 07:23:25;;;;;;;;;;;;;;;13.87;21.44;100336.59;5210196;27;33330;-94
2022/03/24 07:25:53;;;;;;;;;;;;;;;14.28;21.02;100348.91;5212351;27;33437;-95
2022/03/24 07:28:22;;;;;;;;;;;;;;;14.29;21.11;100336.72;5230969;27;34521;-96
2022/03/24 07:30:55;;;;;;;;;;;;;;;14.39;20.55;100346.09;5216827;27;32884;-95
2022/03/24 07:33:26;;;;;;;;;;;;;;;14.30;20.57;100341.91;5212106;27;34742;-96
2022/03/24 07:35:56;;;;;;;;;;;;;;;14.42;20.69;100330.38;5230180;27;33679;-94
2022/03/24 07:38:25;;;;;;;;;;;;;;;14.46;20.56;100337.25;5229072;27;33794;-94
2022/03/24 07:40:55;;;;;;;;;;;;;;;14.67;20.13;100346.47;5212005;27;33081;-94
2022/03/24 07:43:25;;;;;;;;;;;;;;;14.69;20.26;100344.69;5210108;27;32494;-95
2022/03/24 07:45:54;;;;;;;;;;;;;;;14.78;20.41;100338.41;5235013;27;34103;-94
2022/03/24 07:48:26;;;;;;;;;;;;;;;14.79;20.54;100344.53;5211417;27;33201;-95
2022/03/24 07:51:20;;;;;;;;;;;;;;;15.12;20.02;100337.72;5193183;27;33542;-95
2022/03/24 07:53:54;;;;;;;;;;;;;;;15.05;20.46;100334.41;5212081;27;34470;-96
2022/03/24 07:56:24;;;;;;;;;;;;;;;15.02;20.26;100339.66;5231341;27;32599;-96
2022/03/24 07:58:53;;;;;;;;;;;;;;;15.21;20.32;100334.91;5229696;27;33900;-95
2022/03/24 08:01:25;;;;;;;;;;;;;;;15.45;20.30;100336.13;5238674;27;35098;-96
2022/03/24 08:04:00;;;;;;;;;;;;;;;15.46;20.50;100331.72;5234854;27;34306;-94
2022/03/24 08:06:30;;;;;;;;;;;;;;;15.71;20.18;100322.47;5230824;27;33586;-96
2022/03/24 08:09:01;;;;;;;;;;;;;;;15.46;20.55;100323.91;5231608;27;32677;-96
2022/03/24 08:11:31;;;;;;;;;;;;;;;15.72;20.56;100329.41;5209972;27;32326;-96
2022/03/24 08:13:59;;;;;;;;;;;;;;;15.69;20.62;100329.44;5231662;27;34075;-96
2022/03/24 08:16:28;;;;;;;;;;;;;;;15.82;20.86;100334.41;5235688;27;33427;-95
2022/03/24 08:18:57;;;;;;;;;;;;;;;15.82;21.00;100329.19;5232432;27;34163;-95
2022/03/24 08:21:25;;;;;;;;;;;;;;;16.05;21.04;100328.63;5211779;27;34208;-94
2022/03/24 08:23:55;;;;;;;;;;;;;;;16.20;21.02;100323.84;5231330;27;34157;-95
2022/03/24 08:26:24;;;;;;;;;;;;;;;16.25;20.67;100330.72;5228018;27;32251;-95
2022/03/24 08:28:56;;;;;;;;;;;;;;;16.23;20.50;100338.59;5235708;27;33924;-95
2022/03/24 08:31:25;;;;;;;;;;;;;;;16.39;20.23;100333.84;5211788;27;33436;-96
2022/03/24 08:33:54;;;;;;;;;;;;;;;16.50;19.80;100329.13;5212301;27;32496;-96
2022/03/24 08:36:23;;;;;;;;;;;;;;;16.60;19.49;100330.62;5232021;27;34044;-94
2022/03/24 08:38:51;;;;;;;;;;;;;;;16.84;19.45;100344.84;5212107;27;33545;-94
2022/03/24 08:41:21;;;;;;;;;;;;;;;16.91;19.58;100327.16;5234761;27;33279;-96
2022/03/24 08:43:50;;;;;;;;;;;;;;;16.92;19.44;100331.50;5232579;27;34703;-94
2022/03/24 08:46:24;;;;;;;;;;;;;;;17.36;19.16;100338.94;5233827;27;32373;-96
2022/03/24 08:48:55;;;;;;;;;;;;;;;17.46;18.80;100340.38;5213927;27;33570;-95
2022/03/24 08:51:23;;;;;;;;;;;;;;;17.42;17.83;100334.38;5230762;27;33905;-96
2022/03/24 08:53:52;;;;;;;;;;;;;;;17.45;18.10;100330.78;5231405;27;33556;-94
2022/03/24 08:56:22;;;;;;;;;;;;;;;17.58;18.01;100326.88;5217260;27;32898;-94
2022/03/24 08:58:51;;;;;;;;;;;;;;;17.81;17.60;100336.66;5235293;27;33823;-94
2022/03/24 09:01:21;;;;;;;;;;;;;;;17.74;16.96;100332.50;5232774;27;35321;-95
2022/03/24 09:03:51;;;;;;;;;;;;;;;17.76;16.92;100325.44;5233695;27;33693;-94
2022/03/24 09:06:21;;;;;;;;;;;;;;;17.95;16.50;100327.47;5211132;27;32167;-95
2022/03/24 09:08:51;;;;;;;;;;;;;;;18.02;16.79;100328.97;5238727;27;33533;-96
2022/03/24 09:11:20;;;;;;;;;;;;;;;18.00;16.15;100330.78;5215734;27;33453;-95
2022/03/24 09:13:51;;;;;;;;;;;;;;;18.02;15.78;100337.69;5230718;27;33087;-94
2022/03/24 09:16:20;;;;;;;;;;;;;;;18.27;15.51;100329.84;5232006;27;33430;-96
2022/03/24 09:18:56;;;;;;;;;;;;;;;18.17;15.32;100338.97;5210513;27;33879;-94
2022/03/24 09:21:26;;;;;;;;;;;;;;;18.13;15.20;100332.94;5213671;27;33126;-96
2022/03/24 09:23:55;;;;;;;;;;;;;;;18.15;15.27;100332.06;5213722;27;35847;-95
2022/03/24 09:26:24;;;;;;;;;;;;;;;18.33;15.33;100327.00;5212545;27;32275;-94
2022/03/24 09:29:01;;;;;;;;;;;;;;;18.36;15.20;100326.03;5212316;27;33254;-94
2022/03/24 09:31:30;;;;;;;;;;;;;;;18.32;15.25;100329.69;5226040;27;34320;-95
2022/03/24 09:33:59;;;;;;;;;;;;;;;18.17;15.29;100335.47;5229371;27;34129;-94
2022/03/24 09:36:29;;;;;;;;;;;;;;;18.24;14.95;100329.97;5234476;27;32982;-93
2022/03/24 09:39:01;;;;;;;;;;;;;;;18.48;15.58;100328.25;5231558;27;33327;-95
2022/03/24 09:41:30;;;;;;;;;;;;;;;18.49;15.89;100324.72;5229028;27;33198;-95
2022/03/24 09:44:00;;;;;;;;;;;;;;;18.48;15.59;100327.38;5191879;27;34116;-94
2022/03/24 09:46:32;;;;;;;;;;;;;;;18.72;15.86;100333.53;5211633;27;33485;-96
2022/03/24 09:49:05;;;;;;;;;;;;;;;18.58;16.01;100336.66;5232712;27;33298;-95
2022/03/24 09:51:39;;;;;;;;;;;;;;;18.78;16.23;100321.97;5235063;27;33514;-96
2022/03/24 09:54:10;;;;;;;;;;;;;;;18.73;16.45;100330.00;5231960;27;33914;-96
2022/03/24 09:56:39;;;;;;;;;;;;;;;18.72;16.32;100326.47;5212726;27;31734;-96
2022/03/24 09:59:11;;;;;;;;;;;;;;;18.92;15.76;100324.94;5229850;27;32211;-96
2022/03/24 10:01:41;;;;;;;;;;;;;;;18.71;16.73;100326.56;5213671;27;33679;-95
2022/03/24 10:04:15;;;;;;;;;;;;;;;19.05;16.75;100328.81;5237874;27;33701;-96
2022/03/24 10:06:58;;;;;;;;;;;;;;;18.92;16.93;100319.69;5229887;27;33087;-95
2022/03/24 10:09:37;;;;;;;;;;;;;;;18.95;16.66;100324.81;5212579;27;32641;-95
2022/03/24 10:12:07;;;;;;;;;;;;;;;19.09;16.40;100321.69;5213364;27;33456;-95
2022/03/24 10:14:37;;;;;;;;;;;;;;;19.10;16.73;100318.13;5211455;27;33284;-96
2022/03/24 10:17:10;;;;;;;;;;;;;;;19.40;16.32;100326.56;5196022;27;31426;-96
2022/03/24 10:19:39;;;;;;;;;;;;;;;19.38;16.53;100317.91;5234253;27;33981;-96
2022/03/24 10:22:11;;;;;;;;;;;;;;;19.46;16.15;100315.81;5232993;27;34054;-96
2022/03/24 10:24:41;;;;;;;;;;;;;;;19.46;16.50;100318.47;5232280;27;36053;-95
2022/03/24 10:27:13;;;;;;;;;;;;;;;19.49;16.05;100313.06;5209313;27;32020;-96
2022/03/24 10:29:43;;;;;;;;;;;;;;;19.61;16.22;100312.56;5210483;27;34298;-96
2022/03/24 10:32:14;;;;;;;;;;;;;;;19.67;15.78;100311.47;5228276;27;36651;-96
2022/03/24 10:34:46;;;;;;;;;;;;;;;19.53;16.14;100309.41;5213989;27;33945;-95
2022/03/24 10:37:17;;;;;;;;;;;;;;;19.80;15.52;100298.69;5228972;27;33339;-94
2022/03/24 10:39:56;;;;;;;;;;;;;;;19.72;15.39;100271.84;5209334;27;33327;-95
2022/03/24 10:42:26;;;;;;;;;;;;;;;19.71;15.27;100304.34;5228232;27;34962;-96
2022/03/24 10:45:07;;;;;;;;;;;;;;;19.74;15.25;100302.44;5208231;27;34003;-93
2022/03/24 10:47:36;;;;;;;;;;;;;;;19.81;15.36;100300.38;5226604;27;32859;-94
2022/03/24 10:50:26;;;;;;;;;;;;;;;19.73;15.37;100298.09;5232702;27;33519;-95
2022/03/24 10:52:55;;;;;;;;;;;;;;;20.04;14.89;100297.66;5208972;27;33890;-93
2022/03/24 10:55:31;;;;;;;;;;;;;;;20.01;14.76;100294.31;5209429;27;33224;-96
2022/03/24 10:58:02;;;;;;;;;;;;;;;20.17;14.87;100297.97;5228756;27;33363;-96
2022/03/24 11:00:32;;;;;;;;;;;;;;;20.15;15.18;100302.47;5226471;27;33274;-95
2022/03/24 11:03:01;;;;;;;;;;;;;;;20.00;15.14;100290.78;5229251;27;34533;-95
2022/03/24 11:05:30;;;;;;;;;;;;;;;20.08;15.42;100293.12;5233558;27;33758;-95
2022/03/24 11:07:59;;;;;;;;;;;;;;;20.32;14.97;100299.13;5227915;27;33580;-96
2022/03/24 11:10:31;;;;;;;;;;;;;;;20.46;14.74;100282.66;5232139;27;34373;-96
2022/03/24 11:13:00;;;;;;;;;;;;;;;20.18;14.70;100281.25;5227064;27;34481;-95
2022/03/24 11:15:37;;;;;;;;;;;;;;;20.39;15.40;100274.22;5229922;27;33966;-95
2022/03/24 11:18:06;;;;;;;;;;;;;;;20.51;15.01;100275.41;5229462;27;33372;-95
2022/03/24 11:20:37;;;;;;;;;;;;;;;20.73;14.70;100277.09;5233808;27;34816;-95
2022/03/24 11:23:11;;;;;;;;;;;;;;;20.50;15.03;100272.88;5230074;27;33665;-95
2022/03/24 11:25:39;;;;;;;;;;;;;;;20.72;14.55;100268.34;5228950;27;33351;-95
2022/03/24 11:28:11;;;;;;;;;;;;;;;20.57;15.11;100269.06;5230463;27;33496;-95
2022/03/24 11:30:40;;;;;;;;;;;;;;;20.46;14.91;100262.47;5209591;27;34133;-95
2022/03/24 11:33:10;;;;;;;;;;;;;;;20.84;14.40;100265.13;5215439;27;33348;-95
2022/03/24 11:35:38;;;;;;;;;;;;;;;20.88;14.91;100256.16;5211491;27;33187;-95
2022/03/24 11:38:08;;;;;;;;;;;;;;;20.93;13.89;100250.69;5229260;27;33162;-95
2022/03/24 11:40:39;;;;;;;;;;;;;;;20.99;14.36;100247.75;5226660;27;33438;-93
2022/03/24 11:43:08;;;;;;;;;;;;;;;21.14;14.55;100253.22;5210239;27;33642;-95
2022/03/24 11:45:40;;;;;;;;;;;;;;;21.25;14.60;100249.12;5214388;27;33246;-96
2022/03/24 11:48:10;;;;;;;;;;;;;;;21.16;13.65;100254.00;5232922;27;34478;-96
2022/03/24 11:50:41;;;;;;;;;;;;;;;20.93;13.58;100244.56;5214775;27;32885;-96
2022/03/24 11:53:18;;;;;;;;;;;;;;;20.99;13.05;100234.53;5208744;27;33050;-96
2022/03/24 11:56:05;;;;;;;;;;;;;;;20.82;13.68;100240.63;5228518;27;34262;-95
2022/03/24 11:58:35;;;;;;;;;;;;;;;20.91;13.80;100243.78;5209387;27;32357;-95
2022/03/24 12:01:23;;;;;;;;;;;;;;;20.89;13.90;100236.78;5233618;27;34155;-95
2022/03/24 12:04:01;;;;;;;;;;;;;;;20.61;14.24;100244.25;5231472;27;34766;-96
2022/03/24 12:06:52;;;;;;;;;;;;;;;20.80;14.34;100224.03;5209067;27;33611;-95
2022/03/24 12:09:28;;;;;;;;;;;;;;;21.14;13.80;100232.09;5228339;27;33639;-95
2022/03/24 12:12:07;;;;;;;;;;;;;;;21.09;14.28;100233.19;5228652;27;32377;-95
2022/03/24 12:14:37;;;;;;;;;;;;;;;20.97;14.13;100223.25;5212306;27;33511;-96
2022/03/24 12:17:15;;;;;;;;;;;;;;;21.37;14.34;100223.94;5231105;27;34902;-94
2022/03/24 12:19:52;;;;;;;;;;;;;;;21.57;13.96;100228.25;5234902;27;33365;-93
2022/03/24 12:22:32;;;;;;;;;;;;;;;21.64;13.14;100227.00;5235349;27;33801;-91
2022/03/24 12:25:25;;;;;;;;;;;;;;;21.16;13.24;100215.28;5235173;27;33492;-93
2022/03/24 12:27:58;;;;;;;;;;;;;;;21.09;13.61;100225.28;5232504;27;33516;-95
2022/03/24 12:30:27;;;;;;;;;;;;;;;21.20;12.97;100208.91;5229373;27;32742;-93
2022/03/24 12:33:02;;;;;;;;;;;;;;;21.32;12.74;100204.84;5228634;27;34127;-93
2022/03/24 12:35:42;;;;;;;;;;;;;;;21.20;13.07;100210.72;5228537;27;34387;-94
2022/03/24 12:38:24;;;;;;;;;;;;;;;21.41;12.92;100193.84;5216257;27;32589;-94
2022/03/24 12:41:12;;;;;;;;;;;;;;;21.33;13.02;100203.03;5236406;27;33004;-95
2022/03/24 12:43:43;;;;;;;;;;;;;;;21.51;13.47;100202.16;5227143;27;34446;-94
2022/03/24 12:46:18;;;;;;;;;;;;;;;21.25;13.69;100199.00;5207198;27;37700;-95
2022/03/24 12:48:47;;;;;;;;;;;;;;;21.32;13.90;100199.56;5227081;27;33979;-94
2022/03/24 12:51:22;;;;;;;;;;;;;;;21.36;14.24;100200.25;5208039;27;32449;-94
2022/03/24 12:53:52;;;;;;;;;;;;;;;21.09;14.21;100205.94;5227925;27;33801;-94
2022/03/24 12:56:22;;;;;;;;;;;;;;;21.02;14.39;100183.44;5233223;27;34628;-95
2022/03/24 12:58:54;;;;;;;;;;;;;;;21.30;13.71;100193.50;5228754;27;34048;-95
2022/03/24 13:01:23;;;;;;;;;;;;;;;21.18;13.77;100192.31;5226297;27;33431;-95
2022/03/24 13:03:58;;;;;;;;;;;;;;;21.38;13.97;100193.94;5226998;27;34621;-95
2022/03/24 13:06:28;;;;;;;;;;;;;;;21.62;13.87;100185.75;5227720;27;34337;-95
2022/03/24 13:09:16;;;;;;;;;;;;;;;21.83;13.65;100186.47;5232237;27;33432;-95
2022/03/24 13:11:55;;;;;;;;;;;;;;;21.95;13.51;100178.75;5231722;27;33356;-94
2022/03/24 13:14:27;;;;;;;;;;;;;;;22.24;13.71;100170.25;5229587;27;34878;-94
2022/03/24 13:17:02;;;;;;;;;;;;;;;22.50;13.30;100172.31;5228654;27;33928;-96
2022/03/24 13:19:31;;;;;;;;;;;;;;;22.46;12.96;100178.69;5208652;27;32997;-95
2022/03/24 13:22:10;;;;;;;;;;;;;;;22.71;13.45;100170.28;5227315;27;33067;-94
2022/03/24 13:24:39;;;;;;;;;;;;;;;22.68;12.81;100173.06;5226356;27;34022;-95
2022/03/24 13:27:08;;;;;;;;;;;;;;;22.35;13.44;100159.94;5231552;27;32614;-95
2022/03/24 13:29:37;;;;;;;;;;;;;;;23.21;12.62;100163.06;5228547;27;34829;-95
2022/03/24 13:32:09;;;;;;;;;;;;;;;23.51;12.19;100156.91;5229142;27;33351;-94
2022/03/24 13:34:38;;;;;;;;;;;;;;;23.23;12.25;100157.69;5210742;27;34253;-95
2022/03/24 13:37:15;;;;;;;;;;;;;;;23.23;12.37;100153.25;5227854;27;34090;-94
2022/03/24 13:39:54;;;;;;;;;;;;;;;23.08;12.12;100143.56;5231590;27;32416;-94
2022/03/24 13:42:23;;;;;;;;;;;;;;;23.37;12.60;100150.62;5233563;27;32999;-94
2022/03/24 13:44:52;;;;;;;;;;;;;;;23.03;11.85;100141.16;5208285;27;33266;-94
2022/03/24 13:47:23;;;;;;;;;;;;;;;23.37;11.59;100142.69;5228186;27;34769;-95
2022/03/24 13:49:57;;;;;;;;;;;;;;;23.69;11.78;100131.97;5207927;27;33230;-94
2022/03/24 13:52:43;;;;;;;;;;;;;;;23.47;10.90;100143.00;5227347;27;32336;-96
2022/03/24 13:55:16;;;;;;;;;;;;;;;23.67;10.86;100136.50;5227490;27;34423;-96
2022/03/24 13:57:52;;;;;;;;;;;;;;;23.38;11.09;100136.44;5213668;27;32742;-94
2022/03/24 14:00:25;;;;;;;;;;;;;;;23.08;11.21;100140.91;5208924;27;33588;-95
2022/03/24 14:03:02;;;;;;;;;;;;;;;22.90;11.34;100138.31;5228498;27;32996;-95
2022/03/24 14:05:45;;;;;;;;;;;;;;;22.78;11.42;100126.69;5228317;27;33903;-95
2022/03/24 14:08:19;;;;;;;;;;;;;;;23.27;11.55;100120.38;5227268;27;34499;-95
2022/03/24 14:10:49;;;;;;;;;;;;;;;23.71;11.80;100111.53;5223875;27;33938;-96
2022/03/24 14:13:20;;;;;;;;;;;;;;;23.64;11.10;100110.22;5212130;27;33319;-95
2022/03/24 14:15:51;;;;;;;;;;;;;;;23.73;11.22;100111.47;5227091;27;34392;-95
2022/03/24 14:18:22;;;;;;;;;;;;;;;24.13;10.82;100109.00;5226360;27;34439;-94
2022/03/24 14:20:52;;;;;;;;;;;;;;;23.84;10.36;100116.97;5226734;27;33319;-95
2022/03/24 14:23:29;;;;;;;;;;;;;;;23.12;10.54;100105.37;5207674;27;32324;-94
2022/03/24 14:26:11;;;;;;;;;;;;;;;23.27;10.54;100095.66;5207307;27;33307;-95
2022/03/24 14:29:17;;;;;;;;;;;;;;;23.43;10.76;100105.25;5226878;27;33871;-95
2022/03/24 14:31:45;;;;;;;;;;;;;;;22.94;10.79;100101.97;5231892;27;33923;-95